Greeneville, TN (37743)

11:33 PM EDT on July 26, 2017 (GMT -0400)
Magnolia Drive | | Change Station

Elev 1515 ft 36.15 °N, 82.84 °W | Updated 8 seconds ago

Clear
Clear
75.4 °F
Feels Like 77 °F
N
0.0
Wind Variable Wind from West
Gusts 0.0 mph

Today
High -- | Low -- °F
--% Chance of Precip.
Yesterday
High -- | Low -- °F
Precip. -- in
Pressure 30.04 in
Visibility 10.0 miles
Clouds Clear
Heat Index 77 °F
Dew Point 67 °F
Humidity 75%
Rainfall 0.00 in
Snow Depth Not available.
6:33 AM 8:41 PM
Waxing Crescent, 17% visible
METAR KTRI 270253Z 00000KT 10SM CLR 25/21 A3012 RMK AO2 SLP170 T02500206 53012
Pressure 30.04 in
Visibility 10.0 miles
Clouds Clear
Heat Index 77 °F
Dew Point 67 °F
Humidity 75%
Rainfall 0.00 in
Snow Depth Not available.
6:33 AM 8:41 PM
Waxing Crescent, 17% visible
METAR KTRI 270253Z 00000KT 10SM CLR 25/21 A3012 RMK AO2 SLP170 T02500206 53012

Get Severe Weather Alerts

Thanks for signing up!

Be on the lookout for a verification email in your inbox.

You'll start receiving the daily forecast at 6 AM.

×

10-Day Weather Forecast

Almanac

Astronomy

Jul. 26, 2017 Rise Set
Actual Time
Civil Twilight
Nautical Twilight
Astronomical Twilight
Moon
Length of Visible Light
Length of Day
Tomorrow will be .
, % of the Moon is Illuminated

Today's Extremes

State Highs State Lows

Community

WunderPhotos

Category 6

Welcome to Category 6. This is the collective home for Weather Underground's featured writeups by Dr. Jeff Masters (right), Bob Henson (left), Chris Burt, and other regular contributors.

Nearby

Air Quality

  Air Quality AQ Index Pollutant
Not available.

Snow Depth

Station Depth Elevation

Earthquake Activity

City Distance Mag. Time & Date
Minimum magnitude displayed is 2.5.

Coastal Water Temperatures

Place Temperature

Stations

Nearby Weather Stations

Station Location Temp. Windchill Dew Point Humidity Wind Precip. Elev Updated Type
                   

Watches & Warnings

There are currently no watches in effect.